Gennaro Ievoli — 9HA3007 — position and weather

sailwx.info

Track history (hours):
 
Tides and Currents Weather Stations Pressure Air Temp Water Temp Dewpoint Dewpoint Depression Visibility Wind Speed Wind Dir Waves Ship Positions

Gennaro Ievoli

Last reported at 2015-Aug-22 11:24 UTC. Time now 2015-Aug-28 14:52 UTC.
Position N 31°06' E 122°26'.

Length 171 m; draft 7.4 m.

Type: Ship (hazmat cat B). MMSI: 229031000.

Date/timePositionNaut miles runAvg speedWind from/ knotsBaromVisibWave heightAir tempDewpointWater temp
2015-Aug-22 11:24N 31°06' E 122°26'8 9.2
2015-Aug-22 10:33N 31°07' E 122°17'1414.0
2015-Aug-22 09:33N 31°14' E 122°03'1212.2
2015-Aug-22 08:33N 31°17' E 121°49'9 9.3
2015-Aug-22 07:33N 31°21' E 121°39'10 9.7
2015-Aug-22 06:33N 31°26' E 121°29'6 6.2
2015-Aug-22 05:34N 31°30' E 121°24'1211.5
2015-Aug-22 04:33N 31°38' E 121°14'1211.5
2015-Aug-22 03:31N 31°46' E 121°03'1212.3
2015-Aug-22 02:33N 31°54' E 120°53'1111.1
2015-Aug-22 01:33N 32°00' E 120°42'1313.2
2015-Aug-22 00:33N 32°02' E 120°27'3 2.7
2015-Aug-21 23:18N 31°58' E 120°26'0 0.0
2015-Aug-21 22:11N 31°58' E 120°26'0 0.0
2015-Aug-21 21:29N 31°58' E 120°26'0 0.0
2015-Aug-21 20:28N 31°58' E 120°26'0 0.0
2015-Aug-21 19:22N 31°58' E 120°26'0 0.0
2015-Aug-21 18:03N 31°58' E 120°26'0 0.0
2015-Aug-21 17:30N 31°58' E 120°26'0 0.0
2015-Aug-21 16:21N 31°58' E 120°26'0 0.0
2015-Aug-21 15:29N 31°58' E 120°26'0 0.0
2015-Aug-21 14:33N 31°58' E 120°26'0 0.0
2015-Aug-21 13:07N 31°58' E 120°26'0 0.0
2015-Aug-21 12:16N 31°58' E 120°26'0 0.0
2015-Aug-21 11:05N 31°58' E 120°26'0 0.0
2015-Aug-21 10:29N 31°58' E 120°26'0 0.0
2015-Aug-21 09:05N 31°58' E 120°26'0 0.0
2015-Aug-21 08:32N 31°58' E 120°26'0 0.0
2015-Aug-21 07:25N 31°58' E 120°26'0 0.0
2015-Aug-21 05:18N 31°58' E 120°26'1 0.5
2015-Aug-21 03:34N 31°59' E 120°27'1 0.8
2015-Aug-21 02:31N 31°60' E 120°27'0 0.0
2015-Aug-20 23:20N 31°60' E 120°27'0 0.0
2015-Aug-20 22:31N 31°60' E 120°27'0 0.0
2015-Aug-20 13:31N 31°60' E 120°27'11 8.2
2015-Aug-20 12:13N 31°56' E 120°15'1014.0
2015-Aug-20 11:31N 31°57' E 120°04'4 0.1
2015-Aug-18 17:08N 31°59' E 119°60'7 9.6
2015-Aug-18 16:23N 31°57' E 120°08'8 9.0
2015-Aug-18 15:31N 31°57' E 120°17'8 7.9
2015-Aug-18 14:32N 31°58' E 120°26'7 6.2
2015-Aug-18 13:29N 32°01' E 120°33'1110.9
2015-Aug-18 12:28N 32°01' E 120°46'1010.5
2015-Aug-18 11:32N 31°53' E 120°53'10 9.8
2015-Aug-18 10:28N 31°46' E 121°03'1212.9
2015-Aug-18 09:33N 31°39' E 121°13'1313.2
2015-Aug-18 08:33N 31°30' E 121°25'9 9.3
2015-Aug-18 07:33N 31°24' E 121°33'1110.9
2015-Aug-18 06:33N 31°18' E 121°43'1212.4
2015-Aug-18 05:33N 31°09' E 121°53'1212.3
2015-Aug-18 04:33N 31°04' E 122°07'512.4
2015-Aug-18 04:10N 31°03' E 122°12'0 9.8
2015-Aug-18 04:07N 31°03' E 122°13'73 4.6
2015-Aug-17 12:23N 29°53' E 122°38'1012.3
2015-Aug-17 11:33N 29°46' E 122°29'10 9.8
2015-Aug-17 10:33N 29°46' E 122°18'1211.6
2015-Aug-17 09:33N 29°55' E 122°10'1413.4
2015-Aug-17 08:32N 29°57' E 121°54'8 0.5
2015-Aug-16 17:24N 29°59' E 121°45'0 0.0
2015-Aug-16 12:28N 29°59' E 121°45'0 0.1
2015-Aug-16 05:31N 29°59' E 121°45'4 0.2
2015-Aug-15 09:17N 29°58' E 121°50'710.0
2015-Aug-15 08:33N 29°58' E 121°58'10 9.3
2015-Aug-15 07:30N 29°55' E 122°09'9 9.4
2015-Aug-15 06:31N 29°48' E 122°15'7 5.0
2015-Aug-15 05:13N 29°46' E 122°23'0 0.0
2015-Aug-15 01:23N 29°46' E 122°22'0 0.1
2015-Aug-14 21:21N 29°46' E 122°23'0 0.0
2015-Aug-14 19:08N 29°46' E 122°23'0 0.1
2015-Aug-14 18:26N 29°46' E 122°23'0 0.1
2015-Aug-14 17:25N 29°46' E 122°23'0 0.1
2015-Aug-14 13:24N 29°46' E 122°22'3 4.0
2015-Aug-14 12:33N 29°46' E 122°26'1211.1
2015-Aug-14 11:31N 29°42' E 122°39'41913.5
2015-Aug-13 04:33N 23°52' E 118°22'  
Track history (hours):
 
Tides and Currents Weather Stations Pressure Air Temp Water Temp Dewpoint Dewpoint Depression Visibility Wind Speed Wind Dir Waves Ship Positions

Gennaro Ievoli

Last reported at 2015-Aug-22 11:24 UTC. Time now 2015-Aug-28 14:52 UTC.
Position N 31°06' E 122°26'.

Length 171 m; draft 7.4 m.

Type: Ship (hazmat cat B). MMSI: 229031000.

Date/timePositionNaut miles runAvg speedWind from/ knotsBaromVisibWave heightAir tempDewpointWater temp
2015-Aug-22 11:24N 31°06' E 122°26'8 9.2
2015-Aug-22 10:33N 31°07' E 122°17'1414.0
2015-Aug-22 09:33N 31°14' E 122°03'1212.2
2015-Aug-22 08:33N 31°17' E 121°49'9 9.3
2015-Aug-22 07:33N 31°21' E 121°39'10 9.7
2015-Aug-22 06:33N 31°26' E 121°29'6 6.2
2015-Aug-22 05:34N 31°30' E 121°24'1211.5
2015-Aug-22 04:33N 31°38' E 121°14'1211.5
2015-Aug-22 03:31N 31°46' E 121°03'1212.3
2015-Aug-22 02:33N 31°54' E 120°53'1111.1
2015-Aug-22 01:33N 32°00' E 120°42'1313.2
2015-Aug-22 00:33N 32°02' E 120°27'3 2.7
2015-Aug-21 23:18N 31°58' E 120°26'0 0.0
2015-Aug-21 22:11N 31°58' E 120°26'0 0.0
2015-Aug-21 21:29N 31°58' E 120°26'0 0.0
2015-Aug-21 20:28N 31°58' E 120°26'0 0.0
2015-Aug-21 19:22N 31°58' E 120°26'0 0.0
2015-Aug-21 18:03N 31°58' E 120°26'0 0.0
2015-Aug-21 17:30N 31°58' E 120°26'0 0.0
2015-Aug-21 16:21N 31°58' E 120°26'0 0.0
2015-Aug-21 15:29N 31°58' E 120°26'0 0.0
2015-Aug-21 14:33N 31°58' E 120°26'0 0.0
2015-Aug-21 13:07N 31°58' E 120°26'0 0.0
2015-Aug-21 12:16N 31°58' E 120°26'0 0.0
2015-Aug-21 11:05N 31°58' E 120°26'0 0.0
2015-Aug-21 10:29N 31°58' E 120°26'0 0.0
2015-Aug-21 09:05N 31°58' E 120°26'0 0.0
2015-Aug-21 08:32N 31°58' E 120°26'0 0.0
2015-Aug-21 07:25N 31°58' E 120°26'0 0.0
2015-Aug-21 05:18N 31°58' E 120°26'1 0.5
2015-Aug-21 03:34N 31°59' E 120°27'1 0.8
2015-Aug-21 02:31N 31°60' E 120°27'0 0.0
2015-Aug-20 23:20N 31°60' E 120°27'0 0.0
2015-Aug-20 22:31N 31°60' E 120°27'0 0.0
2015-Aug-20 13:31N 31°60' E 120°27'11 8.2
2015-Aug-20 12:13N 31°56' E 120°15'1014.0
2015-Aug-20 11:31N 31°57' E 120°04'4 0.1
2015-Aug-18 17:08N 31°59' E 119°60'7 9.6
2015-Aug-18 16:23N 31°57' E 120°08'8 9.0
2015-Aug-18 15:31N 31°57' E 120°17'8 7.9
2015-Aug-18 14:32N 31°58' E 120°26'7 6.2
2015-Aug-18 13:29N 32°01' E 120°33'1110.9
2015-Aug-18 12:28N 32°01' E 120°46'1010.5
2015-Aug-18 11:32N 31°53' E 120°53'10 9.8
2015-Aug-18 10:28N 31°46' E 121°03'1212.9
2015-Aug-18 09:33N 31°39' E 121°13'1313.2
2015-Aug-18 08:33N 31°30' E 121°25'9 9.3
2015-Aug-18 07:33N 31°24' E 121°33'1110.9
2015-Aug-18 06:33N 31°18' E 121°43'1212.4
2015-Aug-18 05:33N 31°09' E 121°53'1212.3
2015-Aug-18 04:33N 31°04' E 122°07'512.4
2015-Aug-18 04:10N 31°03' E 122°12'0 9.8
2015-Aug-18 04:07N 31°03' E 122°13'73 4.6
2015-Aug-17 12:23N 29°53' E 122°38'1012.3
2015-Aug-17 11:33N 29°46' E 122°29'10 9.8
2015-Aug-17 10:33N 29°46' E 122°18'1211.6
2015-Aug-17 09:33N 29°55' E 122°10'1413.4
2015-Aug-17 08:32N 29°57' E 121°54'8 0.5
2015-Aug-16 17:24N 29°59' E 121°45'0 0.0
2015-Aug-16 12:28N 29°59' E 121°45'0 0.1
2015-Aug-16 05:31N 29°59' E 121°45'4 0.2
2015-Aug-15 09:17N 29°58' E 121°50'710.0
2015-Aug-15 08:33N 29°58' E 121°58'10 9.3
2015-Aug-15 07:30N 29°55' E 122°09'9 9.4
2015-Aug-15 06:31N 29°48' E 122°15'7 5.0
2015-Aug-15 05:13N 29°46' E 122°23'0 0.0
2015-Aug-15 01:23N 29°46' E 122°22'0 0.1
2015-Aug-14 21:21N 29°46' E 122°23'0 0.0
2015-Aug-14 19:08N 29°46' E 122°23'0 0.1
2015-Aug-14 18:26N 29°46' E 122°23'0 0.1
2015-Aug-14 17:25N 29°46' E 122°23'0 0.1
2015-Aug-14 13:24N 29°46' E 122°22'3 4.0
2015-Aug-14 12:33N 29°46' E 122°26'1211.1
2015-Aug-14 11:31N 29°42' E 122°39'41913.5
2015-Aug-13 04:33N 23°52' E 118°22'  

Dump ship's entire track history